sensor_id;sensor_type;location;lat;lon;timestamp;P1;durP1;ratioP1;P2;durP2;ratioP2
39098;SDS011;24844;52.380;7.018;2023-04-07T00:00:20;36.22;;;27.88;;
39098;SDS011;24844;52.380;7.018;2023-04-07T00:02:45;40.83;;;29.30;;
39098;SDS011;24844;52.380;7.018;2023-04-07T00:05:12;38.60;;;28.67;;
39098;SDS011;24844;52.380;7.018;2023-04-07T00:07:38;38.70;;;27.42;;
39098;SDS011;24844;52.380;7.018;2023-04-07T00:10:04;37.17;;;26.35;;
39098;SDS011;24844;52.380;7.018;2023-04-07T00:12:30;35.22;;;27.23;;
39098;SDS011;24844;52.380;7.018;2023-04-07T00:14:56;35.15;;;27.42;;
39098;SDS011;24844;52.380;7.018;2023-04-07T00:17:21;37.60;;;28.83;;
39098;SDS011;24844;52.380;7.018;2023-04-07T00:19:47;34.50;;;26.35;;
39098;SDS011;24844;52.380;7.018;2023-04-07T00:22:12;36.38;;;27.85;;
39098;SDS011;24844;52.380;7.018;2023-04-07T00:24:38;34.25;;;27.35;;
39098;SDS011;24844;52.380;7.018;2023-04-07T00:27:04;37.60;;;26.45;;
39098;SDS011;24844;52.380;7.018;2023-04-07T00:29:29;32.90;;;25.40;;
39098;SDS011;24844;52.380;7.018;2023-04-07T00:31:55;31.67;;;25.35;;
39098;SDS011;24844;52.380;7.018;2023-04-07T00:34:20;36.92;;;26.30;;
39098;SDS011;24844;52.380;7.018;2023-04-07T00:36:46;32.65;;;25.45;;
39098;SDS011;24844;52.380;7.018;2023-04-07T00:39:16;35.38;;;27.42;;
39098;SDS011;24844;52.380;7.018;2023-04-07T00:41:43;34.17;;;25.88;;
39098;SDS011;24844;52.380;7.018;2023-04-07T00:44:09;34.13;;;26.80;;
39098;SDS011;24844;52.380;7.018;2023-04-07T00:46:35;34.35;;;27.15;;
39098;SDS011;24844;52.380;7.018;2023-04-07T00:49:01;33.72;;;27.02;;
39098;SDS011;24844;52.380;7.018;2023-04-07T00:51:26;32.63;;;26.23;;
39098;SDS011;24844;52.380;7.018;2023-04-07T00:53:53;34.80;;;25.85;;
39098;SDS011;24844;52.380;7.018;2023-04-07T00:56:19;34.30;;;27.65;;
39098;SDS011;24844;52.380;7.018;2023-04-07T00:58:45;37.63;;;28.00;;
39098;SDS011;24844;52.380;7.018;2023-04-07T01:04:58;35.53;;;27.13;;
39098;SDS011;24844;52.380;7.018;2023-04-07T01:07:37;36.53;;;26.88;;
39098;SDS011;24844;52.380;7.018;2023-04-07T01:10:26;34.90;;;27.25;;
39098;SDS011;24844;52.380;7.018;2023-04-07T01:13:07;34.30;;;25.90;;
39098;SDS011;24844;52.380;7.018;2023-04-07T01:15:48;32.08;;;25.60;;
39098;SDS011;24844;52.380;7.018;2023-04-07T01:20:46;33.35;;;26.30;;
39098;SDS011;24844;52.380;7.018;2023-04-07T01:23:29;32.63;;;25.45;;
39098;SDS011;24844;52.380;7.018;2023-04-07T01:26:17;32.47;;;24.75;;
39098;SDS011;24844;52.380;7.018;2023-04-07T01:31:50;29.88;;;23.70;;
39098;SDS011;24844;52.380;7.018;2023-04-07T01:34:19;32.60;;;24.55;;
39098;SDS011;24844;52.380;7.018;2023-04-07T01:36:46;33.33;;;25.17;;
39098;SDS011;24844;52.380;7.018;2023-04-07T01:39:13;32.70;;;24.85;;
39098;SDS011;24844;52.380;7.018;2023-04-07T01:41:40;31.23;;;23.63;;
39098;SDS011;24844;52.380;7.018;2023-04-07T01:44:07;31.55;;;24.05;;
39098;SDS011;24844;52.380;7.018;2023-04-07T01:46:34;34.28;;;24.48;;
39098;SDS011;24844;52.380;7.018;2023-04-07T01:48:59;30.17;;;24.02;;
39098;SDS011;24844;52.380;7.018;2023-04-07T01:51:26;36.25;;;24.98;;
39098;SDS011;24844;52.380;7.018;2023-04-07T01:53:55;31.42;;;23.90;;
39098;SDS011;24844;52.380;7.018;2023-04-07T01:56:21;33.00;;;25.05;;
39098;SDS011;24844;52.380;7.018;2023-04-07T01:58:46;35.00;;;25.25;;
39098;SDS011;24844;52.380;7.018;2023-04-07T02:01:12;33.15;;;24.95;;
39098;SDS011;24844;52.380;7.018;2023-04-07T02:03:50;35.05;;;25.98;;
39098;SDS011;24844;52.380;7.018;2023-04-07T02:06:21;32.05;;;24.08;;
39098;SDS011;24844;52.380;7.018;2023-04-07T02:08:54;31.17;;;23.60;;
39098;SDS011;24844;52.380;7.018;2023-04-07T02:11:24;34.85;;;24.92;;
39098;SDS011;24844;52.380;7.018;2023-04-07T02:13:52;34.67;;;24.52;;
39098;SDS011;24844;52.380;7.018;2023-04-07T02:16:19;34.40;;;25.42;;
39098;SDS011;24844;52.380;7.018;2023-04-07T02:18:46;34.17;;;23.80;;
39098;SDS011;24844;52.380;7.018;2023-04-07T02:21:13;36.45;;;24.40;;
39098;SDS011;24844;52.380;7.018;2023-04-07T02:23:39;36.55;;;25.00;;
39098;SDS011;24844;52.380;7.018;2023-04-07T02:26:05;34.40;;;25.23;;
39098;SDS011;24844;52.380;7.018;2023-04-07T02:28:31;31.25;;;24.80;;
39098;SDS011;24844;52.380;7.018;2023-04-07T02:30:57;31.80;;;23.77;;
39098;SDS011;24844;52.380;7.018;2023-04-07T02:33:22;34.20;;;25.10;;
39098;SDS011;24844;52.380;7.018;2023-04-07T02:35:48;32.05;;;24.33;;
39098;SDS011;24844;52.380;7.018;2023-04-07T02:38:13;30.55;;;23.92;;
39098;SDS011;24844;52.380;7.018;2023-04-07T02:40:39;32.45;;;24.05;;
39098;SDS011;24844;52.380;7.018;2023-04-07T02:43:05;40.25;;;25.00;;
39098;SDS011;24844;52.380;7.018;2023-04-07T02:45:30;37.50;;;27.90;;
39098;SDS011;24844;52.380;7.018;2023-04-07T02:47:56;38.13;;;27.17;;
39098;SDS011;24844;52.380;7.018;2023-04-07T02:50:22;36.53;;;26.80;;
39098;SDS011;24844;52.380;7.018;2023-04-07T02:52:49;36.60;;;26.48;;
39098;SDS011;24844;52.380;7.018;2023-04-07T02:55:15;41.28;;;30.77;;
39098;SDS011;24844;52.380;7.018;2023-04-07T02:57:42;35.72;;;26.63;;
39098;SDS011;24844;52.380;7.018;2023-04-07T03:00:08;43.20;;;31.85;;
39098;SDS011;24844;52.380;7.018;2023-04-07T03:02:34;36.13;;;27.90;;
39098;SDS011;24844;52.380;7.018;2023-04-07T03:04:59;37.97;;;28.67;;
39098;SDS011;24844;52.380;7.018;2023-04-07T03:07:26;39.92;;;28.77;;
39098;SDS011;24844;52.380;7.018;2023-04-07T03:09:51;38.67;;;27.08;;
39098;SDS011;24844;52.380;7.018;2023-04-07T03:12:17;42.08;;;28.10;;
39098;SDS011;24844;52.380;7.018;2023-04-07T03:14:42;45.75;;;32.65;;
39098;SDS011;24844;52.380;7.018;2023-04-07T03:17:08;41.08;;;27.45;;
39098;SDS011;24844;52.380;7.018;2023-04-07T03:19:33;34.28;;;26.20;;
39098;SDS011;24844;52.380;7.018;2023-04-07T03:21:59;43.80;;;32.03;;
39098;SDS011;24844;52.380;7.018;2023-04-07T03:24:24;35.95;;;26.90;;
39098;SDS011;24844;52.380;7.018;2023-04-07T03:26:51;38.00;;;27.17;;
39098;SDS011;24844;52.380;7.018;2023-04-07T03:29:16;43.97;;;31.02;;
39098;SDS011;24844;52.380;7.018;2023-04-07T03:31:42;40.08;;;28.70;;
39098;SDS011;24844;52.380;7.018;2023-04-07T03:34:08;39.70;;;28.70;;
39098;SDS011;24844;52.380;7.018;2023-04-07T03:36:33;40.97;;;28.55;;
39098;SDS011;24844;52.380;7.018;2023-04-07T03:38:59;44.08;;;30.92;;
39098;SDS011;24844;52.380;7.018;2023-04-07T03:41:24;40.13;;;29.60;;
39098;SDS011;24844;52.380;7.018;2023-04-07T03:43:50;48.97;;;32.67;;
39098;SDS011;24844;52.380;7.018;2023-04-07T03:46:17;41.67;;;28.55;;
39098;SDS011;24844;52.380;7.018;2023-04-07T03:48:44;39.95;;;30.40;;
39098;SDS011;24844;52.380;7.018;2023-04-07T03:51:10;39.22;;;28.40;;
39098;SDS011;24844;52.380;7.018;2023-04-07T03:53:36;46.97;;;33.20;;
39098;SDS011;24844;52.380;7.018;2023-04-07T03:56:01;41.10;;;29.85;;
39098;SDS011;24844;52.380;7.018;2023-04-07T03:58:27;41.50;;;28.83;;
39098;SDS011;24844;52.380;7.018;2023-04-07T04:00:53;45.65;;;31.92;;
39098;SDS011;24844;52.380;7.018;2023-04-07T04:03:18;43.33;;;31.05;;
39098;SDS011;24844;52.380;7.018;2023-04-07T04:05:44;40.53;;;29.23;;
39098;SDS011;24844;52.380;7.018;2023-04-07T04:08:09;41.55;;;30.23;;
39098;SDS011;24844;52.380;7.018;2023-04-07T04:10:35;37.15;;;25.92;;
39098;SDS011;24844;52.380;7.018;2023-04-07T04:13:00;38.30;;;27.27;;
39098;SDS011;24844;52.380;7.018;2023-04-07T04:15:28;40.97;;;28.92;;
39098;SDS011;24844;52.380;7.018;2023-04-07T04:17:53;39.45;;;28.60;;
39098;SDS011;24844;52.380;7.018;2023-04-07T04:20:19;46.58;;;31.30;;
39098;SDS011;24844;52.380;7.018;2023-04-07T04:22:46;37.03;;;25.20;;
39098;SDS011;24844;52.380;7.018;2023-04-07T04:25:11;46.40;;;31.48;;
39098;SDS011;24844;52.380;7.018;2023-04-07T04:27:37;39.70;;;26.83;;
39098;SDS011;24844;52.380;7.018;2023-04-07T04:30:03;34.80;;;24.45;;
39098;SDS011;24844;52.380;7.018;2023-04-07T04:32:29;39.40;;;28.15;;
39098;SDS011;24844;52.380;7.018;2023-04-07T04:34:54;40.28;;;27.67;;
39098;SDS011;24844;52.380;7.018;2023-04-07T04:37:20;40.13;;;26.70;;
39098;SDS011;24844;52.380;7.018;2023-04-07T04:39:45;41.38;;;30.25;;
39098;SDS011;24844;52.380;7.018;2023-04-07T04:42:11;37.85;;;26.58;;
39098;SDS011;24844;52.380;7.018;2023-04-07T04:44:36;35.75;;;26.48;;
39098;SDS011;24844;52.380;7.018;2023-04-07T04:47:03;35.58;;;26.30;;
39098;SDS011;24844;52.380;7.018;2023-04-07T04:49:29;38.22;;;28.38;;
39098;SDS011;24844;52.380;7.018;2023-04-07T04:51:55;45.22;;;29.50;;
39098;SDS011;24844;52.380;7.018;2023-04-07T04:54:21;36.90;;;27.05;;
39098;SDS011;24844;52.380;7.018;2023-04-07T04:56:46;36.55;;;25.63;;
39098;SDS011;24844;52.380;7.018;2023-04-07T04:59:12;44.80;;;32.58;;
39098;SDS011;24844;52.380;7.018;2023-04-07T05:01:37;38.67;;;27.77;;
39098;SDS011;24844;52.380;7.018;2023-04-07T05:04:03;41.65;;;27.10;;
39098;SDS011;24844;52.380;7.018;2023-04-07T05:06:29;42.55;;;31.00;;
39098;SDS011;24844;52.380;7.018;2023-04-07T05:08:54;47.53;;;31.33;;
39098;SDS011;24844;52.380;7.018;2023-04-07T05:11:20;45.05;;;31.55;;
39098;SDS011;24844;52.380;7.018;2023-04-07T05:13:46;46.25;;;31.45;;
39098;SDS011;24844;52.380;7.018;2023-04-07T05:16:12;40.85;;;29.10;;
39098;SDS011;24844;52.380;7.018;2023-04-07T05:18:37;37.83;;;25.98;;
39098;SDS011;24844;52.380;7.018;2023-04-07T05:21:03;42.72;;;29.02;;
39098;SDS011;24844;52.380;7.018;2023-04-07T05:23:28;46.15;;;29.35;;
39098;SDS011;24844;52.380;7.018;2023-04-07T05:25:54;36.63;;;26.88;;
39098;SDS011;24844;52.380;7.018;2023-04-07T05:28:20;37.10;;;26.85;;
39098;SDS011;24844;52.380;7.018;2023-04-07T05:30:46;48.47;;;32.53;;
39098;SDS011;24844;52.380;7.018;2023-04-07T05:33:12;37.40;;;26.73;;
39098;SDS011;24844;52.380;7.018;2023-04-07T05:35:38;36.55;;;26.70;;
39098;SDS011;24844;52.380;7.018;2023-04-07T05:38:03;36.42;;;26.52;;
39098;SDS011;24844;52.380;7.018;2023-04-07T05:40:29;33.55;;;26.42;;
39098;SDS011;24844;52.380;7.018;2023-04-07T05:42:55;32.53;;;24.80;;
39098;SDS011;24844;52.380;7.018;2023-04-07T05:45:20;39.35;;;28.48;;
39098;SDS011;24844;52.380;7.018;2023-04-07T05:47:46;36.70;;;26.50;;
39098;SDS011;24844;52.380;7.018;2023-04-07T05:50:14;34.78;;;25.73;;
39098;SDS011;24844;52.380;7.018;2023-04-07T05:52:40;37.70;;;27.17;;
39098;SDS011;24844;52.380;7.018;2023-04-07T05:55:05;37.03;;;26.90;;
39098;SDS011;24844;52.380;7.018;2023-04-07T05:57:31;38.78;;;27.75;;
39098;SDS011;24844;52.380;7.018;2023-04-07T05:59:58;40.72;;;29.08;;
39098;SDS011;24844;52.380;7.018;2023-04-07T06:02:23;37.63;;;26.98;;
39098;SDS011;24844;52.380;7.018;2023-04-07T06:04:49;36.47;;;27.67;;
39098;SDS011;24844;52.380;7.018;2023-04-07T06:07:14;46.20;;;32.55;;
39098;SDS011;24844;52.380;7.018;2023-04-07T06:09:40;36.80;;;26.00;;
39098;SDS011;24844;52.380;7.018;2023-04-07T06:12:06;38.60;;;27.15;;
39098;SDS011;24844;52.380;7.018;2023-04-07T06:14:33;40.85;;;30.33;;
39098;SDS011;24844;52.380;7.018;2023-04-07T06:16:59;34.38;;;26.20;;
39098;SDS011;24844;52.380;7.018;2023-04-07T06:19:25;36.25;;;26.33;;
39098;SDS011;24844;52.380;7.018;2023-04-07T06:21:51;38.72;;;27.70;;
39098;SDS011;24844;52.380;7.018;2023-04-07T06:24:17;38.13;;;27.17;;
39098;SDS011;24844;52.380;7.018;2023-04-07T06:26:43;37.08;;;26.80;;
39098;SDS011;24844;52.380;7.018;2023-04-07T06:29:09;35.53;;;27.13;;
39098;SDS011;24844;52.380;7.018;2023-04-07T06:31:35;37.50;;;28.27;;
39098;SDS011;24844;52.380;7.018;2023-04-07T06:34:01;35.70;;;26.95;;
39098;SDS011;24844;52.380;7.018;2023-04-07T06:36:27;34.15;;;24.52;;
39098;SDS011;24844;52.380;7.018;2023-04-07T06:38:53;35.42;;;26.10;;
39098;SDS011;24844;52.380;7.018;2023-04-07T06:41:18;28.15;;;22.45;;
39098;SDS011;24844;52.380;7.018;2023-04-07T06:43:47;31.05;;;25.60;;
39098;SDS011;24844;52.380;7.018;2023-04-07T06:46:15;29.13;;;22.58;;
39098;SDS011;24844;52.380;7.018;2023-04-07T06:48:41;30.13;;;21.98;;
39098;SDS011;24844;52.380;7.018;2023-04-07T06:51:06;30.48;;;23.75;;
39098;SDS011;24844;52.380;7.018;2023-04-07T06:53:32;30.30;;;23.20;;
39098;SDS011;24844;52.380;7.018;2023-04-07T06:56:01;29.17;;;22.33;;
39098;SDS011;24844;52.380;7.018;2023-04-07T06:58:28;29.33;;;21.50;;
39098;SDS011;24844;52.380;7.018;2023-04-07T07:00:53;26.25;;;20.27;;
39098;SDS011;24844;52.380;7.018;2023-04-07T07:03:19;26.83;;;20.88;;
39098;SDS011;24844;52.380;7.018;2023-04-07T07:05:45;24.77;;;20.23;;
39098;SDS011;24844;52.380;7.018;2023-04-07T07:08:10;27.13;;;20.60;;
39098;SDS011;24844;52.380;7.018;2023-04-07T07:10:36;24.85;;;20.13;;
39098;SDS011;24844;52.380;7.018;2023-04-07T07:13:01;29.38;;;22.35;;
39098;SDS011;24844;52.380;7.018;2023-04-07T07:15:27;26.50;;;19.95;;
39098;SDS011;24844;52.380;7.018;2023-04-07T07:17:52;25.08;;;18.48;;
39098;SDS011;24844;52.380;7.018;2023-04-07T07:20:18;21.50;;;17.75;;
39098;SDS011;24844;52.380;7.018;2023-04-07T07:22:44;24.35;;;15.35;;
39098;SDS011;24844;52.380;7.018;2023-04-07T07:25:09;19.25;;;15.45;;
39098;SDS011;24844;52.380;7.018;2023-04-07T07:27:35;18.75;;;14.23;;
39098;SDS011;24844;52.380;7.018;2023-04-07T07:30:01;16.15;;;13.63;;
39098;SDS011;24844;52.380;7.018;2023-04-07T07:32:26;19.65;;;16.00;;
39098;SDS011;24844;52.380;7.018;2023-04-07T07:34:52;18.75;;;16.27;;
39098;SDS011;24844;52.380;7.018;2023-04-07T07:37:17;18.38;;;16.25;;
39098;SDS011;24844;52.380;7.018;2023-04-07T07:39:43;18.25;;;15.38;;
39098;SDS011;24844;52.380;7.018;2023-04-07T07:42:09;17.38;;;13.85;;
39098;SDS011;24844;52.380;7.018;2023-04-07T07:44:34;15.80;;;13.38;;
39098;SDS011;24844;52.380;7.018;2023-04-07T07:47:00;17.10;;;14.02;;
39098;SDS011;24844;52.380;7.018;2023-04-07T07:49:26;15.52;;;13.02;;
39098;SDS011;24844;52.380;7.018;2023-04-07T07:51:51;16.67;;;12.93;;
39098;SDS011;24844;52.380;7.018;2023-04-07T07:54:17;17.60;;;13.10;;
39098;SDS011;24844;52.380;7.018;2023-04-07T07:56:42;14.40;;;12.35;;
39098;SDS011;24844;52.380;7.018;2023-04-07T07:59:08;14.68;;;12.60;;
39098;SDS011;24844;52.380;7.018;2023-04-07T08:01:33;15.43;;;11.93;;
39098;SDS011;24844;52.380;7.018;2023-04-07T08:04:00;13.75;;;11.15;;
39098;SDS011;24844;52.380;7.018;2023-04-07T08:06:26;16.58;;;12.00;;
39098;SDS011;24844;52.380;7.018;2023-04-07T08:08:53;13.15;;;11.73;;
39098;SDS011;24844;52.380;7.018;2023-04-07T08:11:18;13.63;;;11.68;;
39098;SDS011;24844;52.380;7.018;2023-04-07T08:13:45;13.60;;;11.57;;
39098;SDS011;24844;52.380;7.018;2023-04-07T08:16:10;13.32;;;11.93;;
39098;SDS011;24844;52.380;7.018;2023-04-07T08:18:36;13.25;;;11.07;;
39098;SDS011;24844;52.380;7.018;2023-04-07T08:21:04;12.95;;;11.50;;
39098;SDS011;24844;52.380;7.018;2023-04-07T08:25:56;14.00;;;12.10;;
39098;SDS011;24844;52.380;7.018;2023-04-07T08:28:22;15.13;;;10.60;;
39098;SDS011;24844;52.380;7.018;2023-04-07T08:30:49;12.03;;;10.33;;
39098;SDS011;24844;52.380;7.018;2023-04-07T08:33:15;12.25;;;10.32;;
39098;SDS011;24844;52.380;7.018;2023-04-07T08:35:40;10.60;;;9.10;;
39098;SDS011;24844;52.380;7.018;2023-04-07T08:38:06;12.70;;;10.32;;
39098;SDS011;24844;52.380;7.018;2023-04-07T08:40:33;10.00;;;9.00;;
39098;SDS011;24844;52.380;7.018;2023-04-07T08:42:59;10.60;;;8.73;;
39098;SDS011;24844;52.380;7.018;2023-04-07T08:45:28;9.48;;;8.50;;
39098;SDS011;24844;52.380;7.018;2023-04-07T08:47:55;9.50;;;8.50;;
39098;SDS011;24844;52.380;7.018;2023-04-07T08:50:26;10.55;;;9.20;;
39098;SDS011;24844;52.380;7.018;2023-04-07T08:52:53;10.13;;;8.60;;
39098;SDS011;24844;52.380;7.018;2023-04-07T08:55:20;11.00;;;9.38;;
39098;SDS011;24844;52.380;7.018;2023-04-07T08:57:46;9.80;;;8.73;;
39098;SDS011;24844;52.380;7.018;2023-04-07T09:00:12;10.30;;;8.57;;
39098;SDS011;24844;52.380;7.018;2023-04-07T09:02:39;9.82;;;8.82;;
39098;SDS011;24844;52.380;7.018;2023-04-07T09:05:08;11.13;;;9.60;;
39098;SDS011;24844;52.380;7.018;2023-04-07T09:07:35;10.63;;;9.25;;
39098;SDS011;24844;52.380;7.018;2023-04-07T09:10:01;10.40;;;9.20;;
39098;SDS011;24844;52.380;7.018;2023-04-07T09:12:28;12.35;;;11.05;;
39098;SDS011;24844;52.380;7.018;2023-04-07T09:14:55;12.43;;;10.95;;
39098;SDS011;24844;52.380;7.018;2023-04-07T09:17:20;13.02;;;11.63;;
39098;SDS011;24844;52.380;7.018;2023-04-07T09:19:47;15.15;;;13.18;;
39098;SDS011;24844;52.380;7.018;2023-04-07T09:22:12;15.25;;;13.57;;
39098;SDS011;24844;52.380;7.018;2023-04-07T09:24:39;12.57;;;11.27;;
39098;SDS011;24844;52.380;7.018;2023-04-07T09:27:09;14.35;;;12.85;;
39098;SDS011;24844;52.380;7.018;2023-04-07T09:29:40;14.00;;;11.98;;
39098;SDS011;24844;52.380;7.018;2023-04-07T09:32:07;13.98;;;12.55;;
39098;SDS011;24844;52.380;7.018;2023-04-07T09:34:37;14.13;;;12.63;;
39098;SDS011;24844;52.380;7.018;2023-04-07T09:37:05;14.05;;;12.65;;
39098;SDS011;24844;52.380;7.018;2023-04-07T09:39:33;14.32;;;12.82;;
39098;SDS011;24844;52.380;7.018;2023-04-07T09:42:13;13.23;;;11.93;;
39098;SDS011;24844;52.380;7.018;2023-04-07T09:44:39;13.40;;;12.02;;
39098;SDS011;24844;52.380;7.018;2023-04-07T09:47:05;13.23;;;11.95;;
39098;SDS011;24844;52.380;7.018;2023-04-07T09:49:31;14.43;;;13.07;;
39098;SDS011;24844;52.380;7.018;2023-04-07T09:51:58;13.45;;;12.05;;
39098;SDS011;24844;52.380;7.018;2023-04-07T09:54:38;11.18;;;9.98;;
39098;SDS011;24844;52.380;7.018;2023-04-07T09:57:06;10.15;;;9.10;;
39098;SDS011;24844;52.380;7.018;2023-04-07T09:59:34;9.60;;;8.67;;
39098;SDS011;24844;52.380;7.018;2023-04-07T10:02:04;8.82;;;7.38;;
39098;SDS011;24844;52.380;7.018;2023-04-07T10:04:30;8.93;;;7.55;;
39098;SDS011;24844;52.380;7.018;2023-04-07T10:06:56;8.25;;;7.30;;
39098;SDS011;24844;52.380;7.018;2023-04-07T10:09:23;7.40;;;6.45;;
39098;SDS011;24844;52.380;7.018;2023-04-07T10:11:54;8.52;;;7.65;;
39098;SDS011;24844;52.380;7.018;2023-04-07T10:14:22;8.50;;;7.53;;
39098;SDS011;24844;52.380;7.018;2023-04-07T10:16:54;10.63;;;9.18;;
39098;SDS011;24844;52.380;7.018;2023-04-07T10:19:21;14.25;;;9.88;;
39098;SDS011;24844;52.380;7.018;2023-04-07T10:21:50;11.60;;;10.40;;
39098;SDS011;24844;52.380;7.018;2023-04-07T10:24:36;10.55;;;9.45;;
39098;SDS011;24844;52.380;7.018;2023-04-07T10:27:23;12.52;;;10.10;;
39098;SDS011;24844;52.380;7.018;2023-04-07T10:29:57;12.77;;;10.65;;
39098;SDS011;24844;52.380;7.018;2023-04-07T10:32:24;11.48;;;9.68;;
39098;SDS011;24844;52.380;7.018;2023-04-07T10:37:17;10.20;;;8.88;;
39098;SDS011;24844;52.380;7.018;2023-04-07T10:45:03;11.02;;;9.77;;
39098;SDS011;24844;52.380;7.018;2023-04-07T10:47:29;11.25;;;10.05;;
39098;SDS011;24844;52.380;7.018;2023-04-07T10:50:15;12.38;;;10.52;;
39098;SDS011;24844;52.380;7.018;2023-04-07T10:52:42;10.90;;;9.80;;
39098;SDS011;24844;52.380;7.018;2023-04-07T10:55:28;11.95;;;10.73;;
39098;SDS011;24844;52.380;7.018;2023-04-07T10:58:13;10.82;;;9.40;;
39098;SDS011;24844;52.380;7.018;2023-04-07T11:00:42;9.57;;;8.63;;
39098;SDS011;24844;52.380;7.018;2023-04-07T11:03:31;9.13;;;7.43;;
39098;SDS011;24844;52.380;7.018;2023-04-07T11:06:05;9.10;;;7.13;;
39098;SDS011;24844;52.380;7.018;2023-04-07T11:08:35;8.00;;;7.20;;
39098;SDS011;24844;52.380;7.018;2023-04-07T11:11:01;8.30;;;7.07;;
39098;SDS011;24844;52.380;7.018;2023-04-07T11:13:38;7.32;;;6.55;;
39098;SDS011;24844;52.380;7.018;2023-04-07T11:16:08;8.98;;;7.70;;
39098;SDS011;24844;52.380;7.018;2023-04-07T11:18:34;8.88;;;6.78;;
39098;SDS011;24844;52.380;7.018;2023-04-07T11:21:01;7.82;;;6.55;;
39098;SDS011;24844;52.380;7.018;2023-04-07T11:23:27;9.13;;;7.47;;
39098;SDS011;24844;52.380;7.018;2023-04-07T11:26:02;7.70;;;6.72;;
39098;SDS011;24844;52.380;7.018;2023-04-07T11:28:28;7.50;;;6.70;;
39098;SDS011;24844;52.380;7.018;2023-04-07T11:30:55;13.70;;;6.32;;
39098;SDS011;24844;52.380;7.018;2023-04-07T11:33:25;8.30;;;6.10;;
39098;SDS011;24844;52.380;7.018;2023-04-07T11:35:56;7.68;;;5.97;;
39098;SDS011;24844;52.380;7.018;2023-04-07T11:38:23;8.00;;;6.60;;
39098;SDS011;24844;52.380;7.018;2023-04-07T11:40:51;8.10;;;5.80;;
39098;SDS011;24844;52.380;7.018;2023-04-07T11:43:19;9.00;;;6.30;;
39098;SDS011;24844;52.380;7.018;2023-04-07T11:45:44;7.70;;;6.90;;
39098;SDS011;24844;52.380;7.018;2023-04-07T11:48:29;7.80;;;6.22;;
39098;SDS011;24844;52.380;7.018;2023-04-07T11:50:56;9.25;;;6.85;;
39098;SDS011;24844;52.380;7.018;2023-04-07T11:53:26;8.77;;;6.82;;
39098;SDS011;24844;52.380;7.018;2023-04-07T11:56:03;8.35;;;6.28;;
39098;SDS011;24844;52.380;7.018;2023-04-07T11:58:31;8.18;;;6.47;;
39098;SDS011;24844;52.380;7.018;2023-04-07T12:00:57;9.25;;;5.85;;
39098;SDS011;24844;52.380;7.018;2023-04-07T12:03:28;7.40;;;6.40;;
39098;SDS011;24844;52.380;7.018;2023-04-07T12:05:54;6.43;;;5.70;;
39098;SDS011;24844;52.380;7.018;2023-04-07T12:08:20;8.32;;;6.50;;
39098;SDS011;24844;52.380;7.018;2023-04-07T12:10:46;7.07;;;5.70;;
39098;SDS011;24844;52.380;7.018;2023-04-07T12:13:12;6.35;;;5.28;;
39098;SDS011;24844;52.380;7.018;2023-04-07T12:15:38;6.13;;;5.50;;
39098;SDS011;24844;52.380;7.018;2023-04-07T12:18:04;6.15;;;4.80;;
39098;SDS011;24844;52.380;7.018;2023-04-07T12:20:30;7.45;;;5.60;;
39098;SDS011;24844;52.380;7.018;2023-04-07T12:22:56;5.97;;;5.18;;
39098;SDS011;24844;52.380;7.018;2023-04-07T12:25:22;5.85;;;5.15;;
39098;SDS011;24844;52.380;7.018;2023-04-07T12:27:48;19.13;;;6.00;;
39098;SDS011;24844;52.380;7.018;2023-04-07T12:30:14;6.28;;;5.68;;
39098;SDS011;24844;52.380;7.018;2023-04-07T12:32:40;5.63;;;5.13;;
39098;SDS011;24844;52.380;7.018;2023-04-07T12:35:05;5.95;;;5.35;;
39098;SDS011;24844;52.380;7.018;2023-04-07T12:37:32;5.35;;;4.72;;
39098;SDS011;24844;52.380;7.018;2023-04-07T12:39:58;5.45;;;4.72;;
39098;SDS011;24844;52.380;7.018;2023-04-07T12:42:24;5.75;;;4.78;;
39098;SDS011;24844;52.380;7.018;2023-04-07T12:44:50;4.32;;;3.92;;
39098;SDS011;24844;52.380;7.018;2023-04-07T12:47:15;3.97;;;3.58;;
39098;SDS011;24844;52.380;7.018;2023-04-07T12:49:41;5.28;;;4.78;;
39098;SDS011;24844;52.380;7.018;2023-04-07T12:52:07;4.65;;;4.03;;
39098;SDS011;24844;52.380;7.018;2023-04-07T12:54:32;5.00;;;4.50;;
39098;SDS011;24844;52.380;7.018;2023-04-07T12:56:59;4.70;;;4.25;;
39098;SDS011;24844;52.380;7.018;2023-04-07T12:59:24;5.50;;;4.03;;
39098;SDS011;24844;52.380;7.018;2023-04-07T13:01:50;4.80;;;4.07;;
39098;SDS011;24844;52.380;7.018;2023-04-07T13:04:16;4.32;;;3.92;;
39098;SDS011;24844;52.380;7.018;2023-04-07T13:06:42;6.28;;;4.53;;
39098;SDS011;24844;52.380;7.018;2023-04-07T13:09:08;4.50;;;4.10;;
39098;SDS011;24844;52.380;7.018;2023-04-07T13:11:33;5.78;;;5.18;;
39098;SDS011;24844;52.380;7.018;2023-04-07T13:14:00;6.13;;;4.95;;
39098;SDS011;24844;52.380;7.018;2023-04-07T13:16:26;6.13;;;4.97;;
39098;SDS011;24844;52.380;7.018;2023-04-07T13:18:51;5.93;;;5.03;;
39098;SDS011;24844;52.380;7.018;2023-04-07T13:21:17;5.05;;;4.53;;
39098;SDS011;24844;52.380;7.018;2023-04-07T13:23:43;6.47;;;5.38;;
39098;SDS011;24844;52.380;7.018;2023-04-07T13:26:08;5.53;;;4.50;;
39098;SDS011;24844;52.380;7.018;2023-04-07T13:28:34;6.03;;;5.28;;
39098;SDS011;24844;52.380;7.018;2023-04-07T13:30:59;5.63;;;5.10;;
39098;SDS011;24844;52.380;7.018;2023-04-07T13:33:25;6.30;;;5.28;;
39098;SDS011;24844;52.380;7.018;2023-04-07T13:35:50;5.85;;;5.25;;
39098;SDS011;24844;52.380;7.018;2023-04-07T13:38:16;6.50;;;4.97;;
39098;SDS011;24844;52.380;7.018;2023-04-07T13:40:42;5.80;;;5.20;;
39098;SDS011;24844;52.380;7.018;2023-04-07T13:43:08;5.88;;;5.28;;
39098;SDS011;24844;52.380;7.018;2023-04-07T13:45:36;5.28;;;4.78;;
39098;SDS011;24844;52.380;7.018;2023-04-07T13:48:02;5.20;;;4.70;;
39098;SDS011;24844;52.380;7.018;2023-04-07T13:50:27;5.45;;;4.95;;
39098;SDS011;24844;52.380;7.018;2023-04-07T13:52:53;5.43;;;4.80;;
39098;SDS011;24844;52.380;7.018;2023-04-07T13:55:19;7.07;;;4.55;;
39098;SDS011;24844;52.380;7.018;2023-04-07T13:57:45;4.93;;;4.35;;
39098;SDS011;24844;52.380;7.018;2023-04-07T14:00:11;4.93;;;4.03;;
39098;SDS011;24844;52.380;7.018;2023-04-07T14:02:38;5.18;;;4.32;;
39098;SDS011;24844;52.380;7.018;2023-04-07T14:05:03;4.35;;;3.95;;
39098;SDS011;24844;52.380;7.018;2023-04-07T14:07:29;4.68;;;4.22;;
39098;SDS011;24844;52.380;7.018;2023-04-07T14:09:55;4.90;;;4.40;;
39098;SDS011;24844;52.380;7.018;2023-04-07T14:12:22;4.65;;;4.25;;
39098;SDS011;24844;52.380;7.018;2023-04-07T14:14:48;4.10;;;3.70;;
39098;SDS011;24844;52.380;7.018;2023-04-07T14:17:16;5.60;;;4.47;;
39098;SDS011;24844;52.380;7.018;2023-04-07T14:19:42;4.72;;;4.32;;
39098;SDS011;24844;52.380;7.018;2023-04-07T14:22:07;5.22;;;4.05;;
39098;SDS011;24844;52.380;7.018;2023-04-07T14:24:33;5.00;;;4.50;;
39098;SDS011;24844;52.380;7.018;2023-04-07T14:26:58;4.93;;;4.43;;
39098;SDS011;24844;52.380;7.018;2023-04-07T14:29:25;4.95;;;4.40;;
39098;SDS011;24844;52.380;7.018;2023-04-07T14:31:51;4.20;;;3.80;;
39098;SDS011;24844;52.380;7.018;2023-04-07T14:34:16;5.13;;;4.63;;
39098;SDS011;24844;52.380;7.018;2023-04-07T14:36:51;5.70;;;5.03;;
39098;SDS011;24844;52.380;7.018;2023-04-07T14:39:21;5.28;;;4.78;;
39098;SDS011;24844;52.380;7.018;2023-04-07T14:41:47;5.10;;;4.60;;
39098;SDS011;24844;52.380;7.018;2023-04-07T14:44:13;4.90;;;4.22;;
39098;SDS011;24844;52.380;7.018;2023-04-07T14:46:39;4.15;;;3.67;;
39098;SDS011;24844;52.380;7.018;2023-04-07T14:49:06;4.22;;;3.67;;